createdAt,value
2023-06-20T00:00:07.609Z,101190.08
2023-06-20T00:02:34.756Z,101192.70
2023-06-20T00:05:03.665Z,101192.34
2023-06-20T00:07:31.028Z,101193.27
2023-06-20T00:09:58.300Z,101194.38
2023-06-20T00:12:25.359Z,101191.52
2023-06-20T00:14:52.397Z,101188.35
2023-06-20T00:17:19.467Z,101187.08
2023-06-20T00:19:46.597Z,101185.77
2023-06-20T00:22:13.329Z,101187.35
2023-06-20T00:24:40.915Z,101193.63
2023-06-20T00:27:07.838Z,101195.50
2023-06-20T00:29:35.493Z,101199.27
2023-06-20T00:32:02.547Z,101198.98
2023-06-20T00:34:29.589Z,101199.23
2023-06-20T00:36:56.535Z,101204.58
2023-06-20T00:39:23.408Z,101206.05
2023-06-20T00:41:50.319Z,101209.36
2023-06-20T00:44:17.266Z,101215.55
2023-06-20T00:46:44.108Z,101212.52
2023-06-20T00:49:11.441Z,101212.05
2023-06-20T00:51:38.631Z,101216.28
2023-06-20T00:54:05.515Z,101213.67
2023-06-20T00:56:33.021Z,101210.74
2023-06-20T00:58:59.958Z,101214.56
2023-06-20T01:01:32.594Z,101209.77
2023-06-20T01:03:59.942Z,101211.98
2023-06-20T01:07:00.623Z,101210.39
2023-06-20T01:09:39.089Z,101204.36
2023-06-20T01:12:14.361Z,101208.13
2023-06-20T01:15:01.929Z,101204.56
2023-06-20T01:17:35.642Z,101198.05
2023-06-20T01:20:26.005Z,101199.80
2023-06-20T01:23:11.893Z,101198.14
2023-06-20T01:25:47.544Z,101197.98
2023-06-20T01:28:47.048Z,101197.78
2023-06-20T01:31:16.878Z,101200.95
2023-06-20T01:33:57.320Z,101203.00
2023-06-20T01:36:25.396Z,101205.23
2023-06-20T01:38:55.423Z,101203.05
2023-06-20T01:41:23.270Z,101206.55
2023-06-20T01:43:51.039Z,101209.84
2023-06-20T01:46:18.127Z,101212.27
2023-06-20T01:48:45.241Z,101209.63
2023-06-20T01:51:12.285Z,101211.66
2023-06-20T01:53:39.331Z,101212.98
2023-06-20T01:56:06.276Z,101208.60
2023-06-20T01:58:34.240Z,101212.73
2023-06-20T02:01:01.290Z,101215.98
2023-06-20T02:03:28.969Z,101215.44
2023-06-20T02:05:57.025Z,101214.42
2023-06-20T02:08:24.897Z,101209.08
2023-06-20T02:10:51.835Z,101207.15
2023-06-20T02:13:21.028Z,101214.36
2023-06-20T02:15:48.385Z,101214.00
2023-06-20T02:18:15.456Z,101212.74
2023-06-20T02:20:42.476Z,101209.36
2023-06-20T02:23:10.775Z,101207.73
2023-06-20T02:25:39.953Z,101210.23
2023-06-20T02:28:07.509Z,101206.64
2023-06-20T02:30:34.659Z,101206.16
2023-06-20T02:33:01.630Z,101205.33
2023-06-20T02:35:29.010Z,101204.16
2023-06-20T02:37:57.243Z,101206.86
2023-06-20T02:40:24.800Z,101205.06
2023-06-20T02:42:53.495Z,101206.66
2023-06-20T02:45:21.064Z,101204.14
2023-06-20T02:48:02.537Z,101204.44
2023-06-20T02:50:46.798Z,101203.31
2023-06-20T02:53:32.278Z,101204.92
2023-06-20T02:56:02.995Z,101205.64
2023-06-20T02:58:30.859Z,101206.02
2023-06-20T03:00:58.854Z,101205.11
2023-06-20T03:03:27.511Z,101208.40
2023-06-20T03:05:57.530Z,101210.83
2023-06-20T03:08:30.926Z,101210.77
2023-06-20T03:10:58.484Z,101212.85
2023-06-20T03:13:25.953Z,101220.36
2023-06-20T03:15:55.890Z,101219.26
2023-06-20T03:18:23.630Z,101228.30
2023-06-20T03:20:50.667Z,101227.71
2023-06-20T03:23:17.772Z,101227.25
2023-06-20T03:25:45.883Z,101227.91
2023-06-20T03:28:15.412Z,101230.84
2023-06-20T03:30:45.518Z,101227.51
2023-06-20T03:33:12.766Z,101228.61
2023-06-20T03:35:40.931Z,101229.89
2023-06-20T03:38:08.333Z,101233.38
2023-06-20T03:40:35.596Z,101236.03
2023-06-20T03:43:03.094Z,101242.33
2023-06-20T03:45:31.485Z,101248.46
2023-06-20T03:47:58.449Z,101248.86
2023-06-20T03:50:25.603Z,101246.02
2023-06-20T03:52:53.338Z,101256.23
2023-06-20T03:55:20.344Z,101264.17
2023-06-20T03:57:47.632Z,101260.98
2023-06-20T04:00:15.195Z,101267.16
2023-06-20T04:02:42.752Z,101266.54
2023-06-20T04:05:10.109Z,101269.08
2023-06-20T04:07:43.372Z,101269.70
2023-06-20T04:10:11.679Z,101274.98
2023-06-20T04:12:40.256Z,101272.16
2023-06-20T04:15:08.149Z,101278.00
2023-06-20T04:17:35.023Z,101280.83
2023-06-20T04:20:08.649Z,101280.08
2023-06-20T04:22:35.519Z,101281.57
2023-06-20T04:25:02.555Z,101280.84
2023-06-20T04:27:29.810Z,101278.25
2023-06-20T04:29:58.350Z,101279.95
2023-06-20T04:32:26.094Z,101283.70
2023-06-20T04:34:53.617Z,101289.36
2023-06-20T04:37:23.029Z,101297.45
2023-06-20T04:39:50.577Z,101295.86
2023-06-20T04:42:18.002Z,101296.02
2023-06-20T04:44:45.378Z,101292.25
2023-06-20T04:47:13.653Z,101297.77
2023-06-20T04:49:44.185Z,101301.30
2023-06-20T04:52:11.445Z,101309.15
2023-06-20T04:54:38.789Z,101314.98
2023-06-20T04:57:05.836Z,101317.28
2023-06-20T04:59:36.375Z,101315.52
2023-06-20T05:02:06.150Z,101317.31
2023-06-20T05:04:33.429Z,101326.38
2023-06-20T05:07:01.394Z,101326.70
2023-06-20T05:09:28.649Z,101326.55
2023-06-20T05:11:59.263Z,101325.80
2023-06-20T05:14:28.064Z,101327.88
2023-06-20T05:16:55.222Z,101328.35
2023-06-20T05:19:22.384Z,101330.20
2023-06-20T05:21:49.311Z,101333.55
2023-06-20T05:24:16.293Z,101335.70
2023-06-20T05:26:43.423Z,101336.71
2023-06-20T05:29:10.349Z,101330.70
2023-06-20T05:31:42.151Z,101336.65
2023-06-20T05:34:09.358Z,101335.42
2023-06-20T05:36:37.149Z,101344.08
2023-06-20T05:39:04.688Z,101348.67
2023-06-20T05:41:31.755Z,101346.67
2023-06-20T05:43:59.099Z,101349.13
2023-06-20T05:46:26.243Z,101350.60
2023-06-20T05:48:53.509Z,101344.05
2023-06-20T05:51:20.649Z,101347.98
2023-06-20T05:53:47.794Z,101350.98
2023-06-20T05:56:14.737Z,101357.22
2023-06-20T05:58:42.622Z,101360.38
2023-06-20T06:01:11.410Z,101356.56
2023-06-20T06:03:39.180Z,101358.88
2023-06-20T06:06:10.398Z,101359.45
2023-06-20T06:08:37.621Z,101355.23
2023-06-20T06:11:04.918Z,101358.32
2023-06-20T06:13:32.970Z,101355.17
2023-06-20T06:16:01.348Z,101358.61
2023-06-20T06:18:31.144Z,101353.46
2023-06-20T06:20:58.049Z,101355.60
2023-06-20T06:23:25.464Z,101356.38
2023-06-20T06:25:53.025Z,101358.40
2023-06-20T06:28:19.961Z,101356.85
2023-06-20T06:30:47.391Z,101359.17
2023-06-20T06:33:14.590Z,101360.81
2023-06-20T06:35:43.473Z,101359.08
2023-06-20T06:38:10.413Z,101359.44
2023-06-20T06:40:37.354Z,101356.32
2023-06-20T06:43:04.501Z,101356.41
2023-06-20T06:45:33.396Z,101360.63
2023-06-20T06:48:00.426Z,101363.33
2023-06-20T06:50:27.781Z,101365.77
2023-06-20T06:52:54.956Z,101368.43
2023-06-20T06:55:23.329Z,101368.11
2023-06-20T06:57:50.661Z,101373.02
2023-06-20T07:00:18.232Z,101375.37
2023-06-20T07:02:45.959Z,101377.67
2023-06-20T07:05:13.143Z,101380.05
2023-06-20T07:07:40.306Z,101378.89
2023-06-20T07:10:08.056Z,101380.95
2023-06-20T07:12:34.969Z,101383.66
2023-06-20T07:15:01.954Z,101385.66
2023-06-20T07:17:29.575Z,101387.95
2023-06-20T07:19:56.707Z,101391.18
2023-06-20T07:22:24.830Z,101397.92
2023-06-20T07:24:53.909Z,101396.59
2023-06-20T07:27:23.023Z,101395.66
2023-06-20T07:29:49.707Z,101394.54
2023-06-20T07:32:17.137Z,101397.95
2023-06-20T07:34:44.267Z,101398.66
2023-06-20T07:37:11.634Z,101400.49
2023-06-20T07:39:43.689Z,101405.02
2023-06-20T07:42:12.470Z,101413.70
2023-06-20T07:44:39.729Z,101418.84
2023-06-20T07:47:07.239Z,101424.03
2023-06-20T07:49:34.046Z,101431.12
2023-06-20T07:52:00.972Z,101425.11
2023-06-20T07:54:28.323Z,101429.71
2023-06-20T07:56:55.175Z,101434.98
2023-06-20T07:59:22.104Z,101438.78
2023-06-20T08:01:49.224Z,101441.55
2023-06-20T08:04:16.510Z,101442.38
2023-06-20T08:06:43.654Z,101444.78
2023-06-20T08:09:10.705Z,101445.13
2023-06-20T08:11:38.778Z,101446.63
2023-06-20T08:14:05.733Z,101451.34
2023-06-20T08:16:33.263Z,101451.67
2023-06-20T08:19:00.336Z,101452.05
2023-06-20T08:21:27.370Z,101452.98
2023-06-20T08:23:54.551Z,101458.02
2023-06-20T08:26:22.490Z,101459.65
2023-06-20T08:28:49.454Z,101462.44
2023-06-20T08:31:16.738Z,101464.54
2023-06-20T08:33:43.582Z,101465.60
2023-06-20T08:36:11.624Z,101467.77
2023-06-20T08:38:39.156Z,101469.71
2023-06-20T08:41:10.093Z,101471.98
2023-06-20T08:43:37.059Z,101475.82
2023-06-20T08:46:03.982Z,101477.48
2023-06-20T08:48:31.057Z,101479.05
2023-06-20T08:50:58.090Z,101482.73
2023-06-20T08:53:25.739Z,101483.63
2023-06-20T08:55:53.391Z,101486.61
2023-06-20T08:58:22.300Z,101484.95
2023-06-20T09:00:49.693Z,101484.44
2023-06-20T09:03:17.222Z,101487.70
2023-06-20T09:05:47.706Z,101488.59
2023-06-20T09:08:17.774Z,101492.77
2023-06-20T09:10:45.822Z,101495.41
2023-06-20T09:13:13.797Z,101497.34
2023-06-20T09:15:41.862Z,101496.39
2023-06-20T09:18:12.491Z,101491.25
2023-06-20T09:20:43.951Z,101491.12
2023-06-20T09:23:11.046Z,101492.66
2023-06-20T09:25:40.493Z,101494.22
2023-06-20T09:28:14.194Z,101491.86
2023-06-20T09:30:45.449Z,101487.90
2023-06-20T09:33:14.232Z,101487.20
2023-06-20T09:35:41.172Z,101488.98
2023-06-20T09:38:08.580Z,101490.05
2023-06-20T09:40:45.534Z,101486.56
2023-06-20T09:43:12.686Z,101484.38
2023-06-20T09:45:40.354Z,101485.96
2023-06-20T09:48:10.966Z,101481.73
2023-06-20T09:50:38.389Z,101479.55
2023-06-20T09:53:40.587Z,101476.92
2023-06-20T09:56:07.572Z,101478.70
2023-06-20T09:58:35.183Z,101481.14
2023-06-20T10:01:02.235Z,101479.67
2023-06-20T10:03:29.664Z,101477.79
2023-06-20T10:05:56.868Z,101480.14
2023-06-20T10:08:23.798Z,101483.42
2023-06-20T10:10:51.450Z,101481.27
2023-06-20T10:13:19.963Z,101479.89
2023-06-20T10:15:48.829Z,101479.11
2023-06-20T10:18:30.730Z,101480.45
2023-06-20T10:20:57.974Z,101482.92
2023-06-20T10:23:31.930Z,101481.61
2023-06-20T10:25:59.115Z,101481.42
2023-06-20T10:28:26.102Z,101479.35
2023-06-20T10:31:03.579Z,101478.14
2023-06-20T10:33:35.684Z,101484.09
2023-06-20T10:36:05.838Z,101487.37
2023-06-20T10:38:45.532Z,101491.49
2023-06-20T10:41:33.232Z,101493.05
2023-06-20T10:44:01.372Z,101493.94
2023-06-20T10:46:35.314Z,101493.99
2023-06-20T10:49:05.521Z,101493.14
2023-06-20T10:52:03.804Z,101500.79
2023-06-20T10:54:36.683Z,101505.41
2023-06-20T10:57:05.117Z,101503.63
2023-06-20T10:59:32.035Z,101504.50
2023-06-20T11:01:58.987Z,101504.69
2023-06-20T11:04:26.097Z,101500.75
2023-06-20T11:06:53.355Z,101503.90
2023-06-20T11:09:21.455Z,101506.79
2023-06-20T11:11:49.614Z,101505.81
2023-06-20T11:14:19.112Z,101509.23
2023-06-20T11:16:47.081Z,101507.56
2023-06-20T11:19:31.129Z,101508.11
2023-06-20T11:22:02.470Z,101504.73
2023-06-20T11:24:31.229Z,101505.64
2023-06-20T11:27:11.827Z,101502.12
2023-06-20T11:29:38.975Z,101501.30
2023-06-20T11:32:10.416Z,101505.73
2023-06-20T11:34:54.535Z,101502.27
2023-06-20T11:37:22.490Z,101499.40
2023-06-20T11:39:49.809Z,101498.52
2023-06-20T11:42:17.344Z,101496.38
2023-06-20T11:44:44.313Z,101491.58
2023-06-20T11:47:11.334Z,101491.65
2023-06-20T11:49:39.906Z,101489.72
2023-06-20T11:52:08.470Z,101489.63
2023-06-20T11:54:52.344Z,101489.83
2023-06-20T11:57:29.729Z,101492.98
2023-06-20T11:59:59.954Z,101489.11
2023-06-20T12:02:29.589Z,101489.70
2023-06-20T12:04:59.670Z,101489.95
2023-06-20T12:07:27.232Z,101488.63
2023-06-20T12:09:54.196Z,101486.94
2023-06-20T12:12:31.265Z,101487.38
2023-06-20T12:14:58.429Z,101479.62
2023-06-20T12:17:25.626Z,101475.52
2023-06-20T12:19:53.838Z,101473.94
2023-06-20T12:22:21.310Z,101472.55
2023-06-20T12:24:48.383Z,101470.41
2023-06-20T12:27:16.634Z,101470.42
2023-06-20T12:29:43.659Z,101467.04
2023-06-20T12:32:10.891Z,101465.06
2023-06-20T12:34:38.812Z,101463.65
2023-06-20T12:37:07.122Z,101463.33
2023-06-20T12:39:35.028Z,101466.16
2023-06-20T12:42:02.281Z,101467.89
2023-06-20T12:44:29.321Z,101467.98
2023-06-20T12:46:56.367Z,101468.91
2023-06-20T12:49:23.631Z,101468.99
2023-06-20T12:51:50.567Z,101473.23
2023-06-20T12:54:19.374Z,101473.98
2023-06-20T12:56:46.506Z,101473.23
2023-06-20T12:59:13.468Z,101472.40
2023-06-20T13:01:43.499Z,101472.66
2023-06-20T13:04:10.922Z,101468.78
2023-06-20T13:06:37.764Z,101464.77
2023-06-20T13:09:06.974Z,101462.09
2023-06-20T13:11:34.010Z,101462.80
2023-06-20T13:14:00.851Z,101463.61
2023-06-20T13:16:29.255Z,101469.43
2023-06-20T13:19:01.602Z,101467.89
2023-06-20T13:21:30.191Z,101466.97
2023-06-20T13:24:09.091Z,101463.85
2023-06-20T13:26:37.668Z,101463.97
2023-06-20T13:29:04.762Z,101460.23
2023-06-20T13:31:31.841Z,101457.36
2023-06-20T13:33:59.244Z,101457.02
2023-06-20T13:36:29.394Z,101453.95
2023-06-20T13:38:57.504Z,101454.60
2023-06-20T13:41:24.480Z,101452.35
2023-06-20T13:43:51.714Z,101450.20
2023-06-20T13:46:22.448Z,101454.33
2023-06-20T13:48:51.462Z,101456.35
2023-06-20T13:51:18.823Z,101460.65
2023-06-20T13:53:46.282Z,101461.08
2023-06-20T13:56:13.326Z,101458.08
2023-06-20T13:58:40.372Z,101455.60
2023-06-20T14:01:07.408Z,101455.83
2023-06-20T14:03:34.678Z,101450.27
2023-06-20T14:06:02.232Z,101452.99
2023-06-20T14:08:29.580Z,101445.05
2023-06-20T14:10:56.644Z,101443.12
2023-06-20T14:13:23.626Z,101437.98
2023-06-20T14:15:50.591Z,101431.34
2023-06-20T14:18:17.869Z,101430.64
2023-06-20T14:20:44.820Z,101434.34
2023-06-20T14:23:11.786Z,101430.91
2023-06-20T14:25:38.710Z,101427.16
2023-06-20T14:28:05.750Z,101425.39
2023-06-20T14:30:33.143Z,101421.41
2023-06-20T14:33:00.423Z,101425.56
2023-06-20T14:35:27.613Z,101426.45
2023-06-20T14:37:54.497Z,101426.73
2023-06-20T14:40:24.361Z,101432.75
2023-06-20T14:42:51.721Z,101429.35
2023-06-20T14:45:18.721Z,101430.88
2023-06-20T14:47:46.670Z,101425.04
2023-06-20T14:50:13.800Z,101424.44
2023-06-20T14:52:41.966Z,101426.45
2023-06-20T14:55:08.898Z,101423.60
2023-06-20T14:57:35.950Z,101418.31
2023-06-20T15:00:03.850Z,101412.67
2023-06-20T15:02:31.554Z,101417.05
2023-06-20T15:04:58.433Z,101414.41
2023-06-20T15:07:25.363Z,101415.13
2023-06-20T15:09:52.404Z,101416.14
2023-06-20T15:12:19.350Z,101417.58
2023-06-20T15:14:46.321Z,101416.73
2023-06-20T15:17:13.343Z,101418.33
2023-06-20T15:19:40.418Z,101415.99
2023-06-20T15:22:07.347Z,101416.33
2023-06-20T15:24:36.033Z,101416.64
2023-06-20T15:27:04.000Z,101417.26
2023-06-20T15:29:32.121Z,101419.20
2023-06-20T15:31:59.378Z,101414.09
2023-06-20T15:34:28.852Z,101413.79
2023-06-20T15:36:55.637Z,101412.14
2023-06-20T15:39:22.524Z,101412.17
2023-06-20T15:41:49.660Z,101412.06
2023-06-20T15:44:16.700Z,101413.08
2023-06-20T15:46:53.304Z,101414.37
2023-06-20T15:49:22.893Z,101414.00
2023-06-20T15:51:49.820Z,101412.80
2023-06-20T15:54:16.810Z,101413.04
2023-06-20T15:56:43.824Z,101413.48
2023-06-20T15:59:10.988Z,101414.98
2023-06-20T16:01:38.255Z,101411.77
2023-06-20T16:04:05.260Z,101415.52
2023-06-20T16:06:34.146Z,101417.52
2023-06-20T16:09:01.211Z,101421.16
2023-06-20T16:11:30.193Z,101420.22
2023-06-20T16:13:57.862Z,101417.89
2023-06-20T16:16:25.235Z,101418.25
2023-06-20T16:18:52.291Z,101421.28
2023-06-20T16:21:19.405Z,101421.27
2023-06-20T16:23:47.912Z,101420.39
2023-06-20T16:26:15.546Z,101422.94
2023-06-20T16:28:43.406Z,101426.61
2023-06-20T16:31:10.623Z,101421.06
2023-06-20T16:33:49.486Z,101418.61
2023-06-20T16:36:18.381Z,101420.27
2023-06-20T16:38:45.437Z,101423.62
2023-06-20T16:41:12.471Z,101424.15
2023-06-20T16:43:40.960Z,101424.50
2023-06-20T16:46:09.656Z,101422.34
2023-06-20T16:48:36.924Z,101419.74
2023-06-20T16:51:03.932Z,101417.33
2023-06-20T16:53:30.983Z,101414.20
2023-06-20T16:55:57.930Z,101410.45
2023-06-20T16:58:24.875Z,101413.87
2023-06-20T17:00:51.956Z,101414.79
2023-06-20T17:03:19.206Z,101413.36
2023-06-20T17:05:46.526Z,101415.95
2023-06-20T17:08:13.466Z,101417.52
2023-06-20T17:10:41.747Z,101419.86
2023-06-20T17:13:09.109Z,101417.20
2023-06-20T17:15:35.965Z,101417.91
2023-06-20T17:18:03.281Z,101422.35
2023-06-20T17:20:30.873Z,101424.11
2023-06-20T17:22:57.918Z,101426.60
2023-06-20T17:25:24.840Z,101429.77
2023-06-20T17:27:51.907Z,101436.20
2023-06-20T17:30:19.246Z,101434.06
2023-06-20T17:32:46.271Z,101432.28
2023-06-20T17:35:13.441Z,101429.23
2023-06-20T17:37:40.565Z,101428.94
2023-06-20T17:40:08.459Z,101430.61
2023-06-20T17:42:36.430Z,101431.27
2023-06-20T17:45:04.758Z,101429.91
2023-06-20T17:47:32.402Z,101424.02
2023-06-20T17:49:59.722Z,101426.53
2023-06-20T17:52:26.896Z,101424.53
2023-06-20T17:54:54.611Z,101423.85
2023-06-20T17:57:21.576Z,101428.20
2023-06-20T17:59:48.439Z,101430.05
2023-06-20T18:02:16.551Z,101430.34
2023-06-20T18:04:43.947Z,101430.86
2023-06-20T18:07:11.124Z,101438.31
2023-06-20T18:09:38.043Z,101433.00
2023-06-20T18:12:05.869Z,101433.75
2023-06-20T18:14:33.586Z,101429.67
2023-06-20T18:17:00.748Z,101429.91
2023-06-20T18:19:34.595Z,101431.50
2023-06-20T18:22:09.045Z,101435.75
2023-06-20T18:24:36.062Z,101437.77
2023-06-20T18:27:04.159Z,101439.71
2023-06-20T18:29:31.105Z,101439.20
2023-06-20T18:31:57.946Z,101447.04
2023-06-20T18:34:25.026Z,101447.54
2023-06-20T18:36:52.043Z,101450.39
2023-06-20T18:39:18.989Z,101452.31
2023-06-20T18:41:46.053Z,101456.11
2023-06-20T18:44:19.796Z,101458.36
2023-06-20T18:46:47.633Z,101461.66
2023-06-20T18:49:14.554Z,101464.16
2023-06-20T18:51:41.510Z,101466.77
2023-06-20T18:54:09.461Z,101473.77
2023-06-20T18:56:37.432Z,101475.05
2023-06-20T18:59:04.785Z,101474.56
2023-06-20T19:01:32.579Z,101472.48
2023-06-20T19:04:00.023Z,101474.30
2023-06-20T19:06:27.159Z,101478.50
2023-06-20T19:08:54.331Z,101480.39
2023-06-20T19:11:21.264Z,101480.54
2023-06-20T19:13:48.196Z,101481.36
2023-06-20T19:16:15.906Z,101484.22
2023-06-20T19:18:43.206Z,101486.19
2023-06-20T19:21:10.413Z,101484.73
2023-06-20T19:23:37.717Z,101484.58
2023-06-20T19:26:05.496Z,101481.73
2023-06-20T19:28:32.546Z,101479.26
2023-06-20T19:30:59.865Z,101476.05
2023-06-20T19:33:27.131Z,101476.91
2023-06-20T19:35:54.381Z,101474.61
2023-06-20T19:38:21.529Z,101470.16
2023-06-20T19:40:48.785Z,101468.20
2023-06-20T19:43:15.722Z,101473.55
2023-06-20T19:45:44.111Z,101470.47
2023-06-20T19:48:12.598Z,101471.01
2023-06-20T19:50:39.753Z,101468.89
2023-06-20T19:53:07.009Z,101468.96
2023-06-20T19:55:34.058Z,101467.05
2023-06-20T19:58:03.450Z,101465.23
2023-06-20T20:00:31.409Z,101463.95
2023-06-20T20:02:58.541Z,101464.46
2023-06-20T20:05:26.946Z,101459.46
2023-06-20T20:07:53.812Z,101457.27
2023-06-20T20:10:20.825Z,101456.89
2023-06-20T20:12:47.765Z,101454.27
2023-06-20T20:15:14.754Z,101451.33
2023-06-20T20:17:44.350Z,101453.36
2023-06-20T20:20:11.329Z,101455.98
2023-06-20T20:22:39.948Z,101459.89
2023-06-20T20:25:12.395Z,101459.59
2023-06-20T20:27:41.023Z,101463.04
2023-06-20T20:30:08.809Z,101465.94
2023-06-20T20:32:36.420Z,101469.50
2023-06-20T20:35:04.004Z,101466.73
2023-06-20T20:37:31.033Z,101470.40
2023-06-20T20:39:58.842Z,101467.70
2023-06-20T20:42:25.783Z,101464.36
2023-06-20T20:44:52.788Z,101467.83
2023-06-20T20:47:19.670Z,101468.97
2023-06-20T20:49:46.586Z,101465.73
2023-06-20T20:52:13.527Z,101470.36
2023-06-20T20:54:40.495Z,101482.31
2023-06-20T20:57:07.836Z,101486.44
2023-06-20T20:59:35.081Z,101484.04
2023-06-20T21:02:02.629Z,101478.88
2023-06-20T21:04:30.498Z,101473.58
2023-06-20T21:06:57.654Z,101473.45
2023-06-20T21:09:24.692Z,101479.15
2023-06-20T21:11:51.840Z,101484.98
2023-06-20T21:14:19.008Z,101477.05
2023-06-20T21:16:46.438Z,101472.92
2023-06-20T21:19:13.819Z,101472.83
2023-06-20T21:21:41.202Z,101474.58
2023-06-20T21:24:08.288Z,101470.84
2023-06-20T21:26:35.364Z,101464.41
2023-06-20T21:29:02.405Z,101464.55
2023-06-20T21:31:29.990Z,101456.80
2023-06-20T21:33:59.810Z,101457.03
2023-06-20T21:36:29.484Z,101459.55
2023-06-20T21:38:56.333Z,101461.84
2023-06-20T21:41:24.911Z,101456.91
2023-06-20T21:43:51.854Z,101456.77
2023-06-20T21:46:20.979Z,101451.31
2023-06-20T21:48:48.093Z,101447.94
2023-06-20T21:51:15.112Z,101447.55
2023-06-20T21:53:41.903Z,101448.95
2023-06-20T21:56:08.852Z,101450.94
2023-06-20T21:58:37.734Z,101445.92
2023-06-20T22:01:05.181Z,101447.17
2023-06-20T22:03:32.244Z,101444.55
2023-06-20T22:05:59.276Z,101435.58
2023-06-20T22:08:27.244Z,101429.34
2023-06-20T22:11:00.153Z,101428.84
2023-06-20T22:13:27.988Z,101425.15
2023-06-20T22:15:55.360Z,101427.44
2023-06-20T22:18:22.428Z,101424.64
2023-06-20T22:20:49.820Z,101423.20
2023-06-20T22:23:17.004Z,101426.04
2023-06-20T22:25:43.839Z,101422.89
2023-06-20T22:28:10.808Z,101425.93
2023-06-20T22:30:38.068Z,101427.98
2023-06-20T22:33:10.449Z,101425.98
2023-06-20T22:35:37.601Z,101421.21
2023-06-20T22:38:04.472Z,101418.98
2023-06-20T22:40:31.665Z,101415.55
2023-06-20T22:42:59.302Z,101418.70
2023-06-20T22:45:26.462Z,101413.96
2023-06-20T22:47:54.014Z,101414.89
2023-06-20T22:50:23.115Z,101414.91
2023-06-20T22:52:50.065Z,101409.32
2023-06-20T22:55:17.729Z,101405.41
2023-06-20T22:57:44.973Z,101403.80
2023-06-20T23:00:12.795Z,101402.55
2023-06-20T23:02:40.857Z,101406.32
2023-06-20T23:05:08.671Z,101405.64
2023-06-20T23:07:36.436Z,101403.89
2023-06-20T23:10:03.852Z,101403.15
2023-06-20T23:12:31.759Z,101401.92
2023-06-20T23:14:59.212Z,101395.02
2023-06-20T23:17:26.295Z,101392.20
2023-06-20T23:19:53.432Z,101398.30
2023-06-20T23:22:20.827Z,101395.69
2023-06-20T23:24:47.829Z,101390.23
2023-06-20T23:27:15.166Z,101382.77
2023-06-20T23:29:44.974Z,101379.20
2023-06-20T23:32:16.130Z,101379.42
2023-06-20T23:34:43.678Z,101381.36
2023-06-20T23:37:10.859Z,101379.10
2023-06-20T23:39:37.796Z,101380.63
2023-06-20T23:42:05.478Z,101378.55
2023-06-20T23:44:35.967Z,101377.82
2023-06-20T23:47:04.410Z,101379.77
2023-06-20T23:49:31.397Z,101376.60
2023-06-20T23:51:58.445Z,101378.18
2023-06-20T23:54:26.410Z,101380.69
2023-06-20T23:56:53.360Z,101374.36
2023-06-20T23:59:20.405Z,101380.22
